Time;durP1;ratioP1;P1;durP2;ratioP2;P2;SDS_P1;SDS_P2;PMS_P1;PMS_P2;Temp;Humidity;BMP_temperature;BMP_pressure;BME280_temperature;BME280_humidity;BME280_pressure;Samples;Min_cycle;Max_cycle;Signal;HPM_P1;HPM_P2
2021/09/22 00:00:22;;;;;;;14.70;10.27;;;;;;;8.32;97.52;102848.13;2089899;28;20024;-64
2021/09/22 00:01:22;;;;;;;17.92;9.95;;;;;;;8.33;97.15;102849.03;2090030;28;20023;-64
2021/09/22 00:02:23;;;;;;;12.20;9.83;;;;;;;8.30;97.18;102843.81;2089961;28;20021;-64
2021/09/22 00:03:23;;;;;;;14.17;11.33;;;;;;;8.29;97.22;102842.09;2089875;28;20029;-65
2021/09/22 00:04:23;;;;;;;19.70;10.53;;;;;;;8.28;97.49;102841.22;2089753;28;20478;-66
2021/09/22 00:05:24;;;;;;;17.30;8.77;;;;;;;8.27;96.98;102849.00;2089567;28;20056;-66
2021/09/22 00:06:24;;;;;;;10.63;7.37;;;;;;;8.23;97.14;102843.84;2089556;28;20023;-64
2021/09/22 00:07:24;;;;;;;14.60;10.10;;;;;;;8.23;97.42;102842.94;2089549;28;20433;-64
2021/09/22 00:08:25;;;;;;;13.40;9.53;;;;;;;8.22;97.50;102842.06;2089661;28;20048;-64
2021/09/22 00:09:25;;;;;;;10.93;8.10;;;;;;;8.20;97.42;102843.81;2088912;28;20029;-65
2021/09/22 00:10:26;;;;;;;19.65;10.18;;;;;;;8.21;97.26;102850.75;2088887;28;20028;-66
2021/09/22 00:11:26;;;;;;;16.17;10.50;;;;;;;8.19;97.24;102842.09;2089537;28;19908;-64
2021/09/22 00:12:27;;;;;;;13.57;9.10;;;;;;;8.21;97.20;102839.50;2089490;28;20098;-64
2021/09/22 00:13:27;;;;;;;21.63;11.33;;;;;;;8.20;97.25;102836.03;2097369;28;20114;-65
2021/09/22 00:14:27;;;;;;;16.93;10.07;;;;;;;8.20;97.52;102841.22;2097287;28;20016;-65
2021/09/22 00:15:28;;;;;;;14.10;9.63;;;;;;;8.22;96.96;102844.69;2089648;28;20024;-65
2021/09/22 00:16:28;;;;;;;15.57;9.50;;;;;;;8.22;97.13;102842.06;2089470;28;20102;-64
2021/09/22 00:17:29;;;;;;;16.90;10.48;;;;;;;8.22;97.20;102842.06;2089809;28;20025;-65
2021/09/22 00:18:29;;;;;;;15.30;9.33;;;;;;;8.22;97.49;102841.22;2088800;28;20528;-65
2021/09/22 00:19:29;;;;;;;14.07;9.23;;;;;;;8.20;96.87;102838.63;2088770;28;20016;-64
2021/09/22 00:20:30;;;;;;;14.83;10.43;;;;;;;8.19;97.12;102836.91;2089000;28;20052;-66
2021/09/22 00:21:30;;;;;;;16.13;9.83;;;;;;;8.20;97.30;102828.22;2089539;28;20497;-64
2021/09/22 00:22:30;;;;;;;17.07;11.40;;;;;;;8.23;97.26;102829.94;2089667;28;20100;-65
2021/09/22 00:23:30;;;;;;;16.43;10.93;;;;;;;8.24;97.21;102832.56;2089499;28;20123;-66
2021/09/22 00:24:31;;;;;;;16.53;9.60;;;;;;;8.27;96.88;102836.00;2089560;28;20025;-65
2021/09/22 00:25:33;;;;;;;13.82;9.90;;;;;;;8.24;97.32;102840.34;2089357;28;19916;-65
2021/09/22 00:26:33;;;;;;;15.45;10.40;;;;;;;8.23;97.31;102833.44;2089757;28;20048;-66
2021/09/22 00:27:33;;;;;;;13.87;10.27;;;;;;;8.23;97.23;102841.22;2089822;28;20390;-64
2021/09/22 00:28:35;;;;;;;17.67;11.20;;;;;;;8.22;97.10;102836.88;2089859;28;20363;-64
2021/09/22 00:29:36;;;;;;;16.23;11.63;;;;;;;8.21;97.18;102829.94;2089735;28;20390;-66
2021/09/22 00:30:37;;;;;;;14.32;11.10;;;;;;;8.20;97.34;102835.16;2089619;28;20040;-65
2021/09/22 00:31:37;;;;;;;;;;;;;;;8.20;97.04;102833.44;2089847;28;20028;-64
2021/09/22 00:32:38;;;;;;;13.15;9.45;;;;;;;8.15;97.30;102822.16;2089222;28;19913;-65
2021/09/22 00:33:39;;;;;;;17.55;8.80;;;;;;;8.15;96.91;102829.97;2089320;28;20013;-64
2021/09/22 00:34:39;;;;;;;15.43;10.23;;;;;;;8.14;97.17;102828.22;2089852;28;20437;-64
2021/09/22 00:35:39;;;;;;;12.87;10.20;;;;;;;8.12;97.21;102827.34;2089908;28;20463;-64
2021/09/22 00:36:40;;;;;;;13.93;10.13;;;;;;;8.13;97.59;102831.69;2089810;28;20494;-64
2021/09/22 00:37:40;;;;;;;13.97;11.23;;;;;;;8.11;97.78;102833.44;2089298;28;20025;-65
2021/09/22 00:38:41;;;;;;;15.23;11.03;;;;;;;8.10;97.87;102831.69;2089406;28;20389;-64
2021/09/22 00:39:41;;;;;;;17.17;12.43;;;;;;;8.06;97.44;102829.94;2089972;28;20029;-65
2021/09/22 00:40:41;;;;;;;16.90;12.17;;;;;;;8.04;97.25;102827.34;2089846;28;20039;-65
2021/09/22 00:41:42;;;;;;;21.03;12.70;;;;;;;8.01;97.50;102829.09;2089907;28;20040;-64
2021/09/22 00:42:43;;;;;;;15.63;11.80;;;;;;;7.99;97.49;102836.88;2089687;28;20059;-65
2021/09/22 00:43:43;;;;;;;18.43;11.67;;;;;;;7.96;97.58;102835.16;2089826;28;20498;-65
2021/09/22 00:45:08;;;;;;;17.47;11.10;;;;;;;7.96;97.53;102835.16;2089825;28;20024;-65
2021/09/22 00:46:08;;;;;;;13.05;10.57;;;;;;;7.94;97.99;102829.06;2084307;28;20083;-65
2021/09/22 00:47:08;;;;;;;18.70;11.63;;;;;;;7.94;97.78;102839.47;2089165;28;20075;-65
2021/09/22 00:48:09;;;;;;;16.10;11.90;;;;;;;7.95;97.80;102829.94;2089124;28;20060;-65
2021/09/22 00:49:09;;;;;;;16.03;11.57;;;;;;;7.93;97.84;102829.94;2089156;28;20032;-64
2021/09/22 00:50:10;;;;;;;14.70;11.20;;;;;;;7.91;97.72;102834.28;2089647;28;20371;-65
2021/09/22 00:51:10;;;;;;;16.05;11.13;;;;;;;7.89;97.51;102838.63;2097342;28;20039;-64
2021/09/22 00:52:15;;;;;;;14.43;11.33;;;;;;;7.88;97.39;102842.09;2097381;28;20071;-64
2021/09/22 00:53:15;;;;;;;13.98;12.00;;;;;;;7.89;97.49;102837.72;2089019;28;20063;-65
2021/09/22 00:54:15;;;;;;;17.35;11.20;;;;;;;7.88;97.45;102847.28;2088806;28;20060;-64
2021/09/22 00:55:16;;;;;;;18.30;10.93;;;;;;;7.88;98.04;102836.88;2089338;28;20029;-65
2021/09/22 00:56:17;;;;;;;14.87;9.33;;;;;;;7.90;98.10;102840.34;2089220;28;20032;-65
2021/09/22 00:57:18;;;;;;;;;;;;;;;7.90;97.88;102832.53;2090398;28;20020;-64
2021/09/22 00:58:19;;;;;;;12.98;9.70;;;;;;;7.89;97.82;102837.72;2089456;28;19909;-65
2021/09/22 00:59:19;;;;;;;14.70;9.87;;;;;;;7.87;97.90;102829.94;2089231;28;20492;-65
2021/09/22 01:00:22;;;;;;;17.70;10.00;;;;;;;7.87;97.65;102829.94;2089158;28;20240;-64
2021/09/22 01:01:22;;;;;;;18.92;10.68;;;;;;;7.85;97.62;102831.69;2089272;28;20457;-65
2021/09/22 01:02:23;;;;;;;17.27;11.77;;;;;;;7.84;97.68;102835.16;2089564;28;20025;-64
2021/09/22 01:03:24;;;;;;;18.23;10.90;;;;;;;7.83;97.86;102831.69;2089529;28;20501;-64
2021/09/22 01:04:24;;;;;;;20.10;10.73;;;;;;;7.82;97.77;102824.75;2089151;28;20071;-65
2021/09/22 01:05:27;;;;;;;17.47;9.97;;;;;;;7.82;97.52;102836.88;2089458;28;20091;-65
2021/09/22 01:06:27;;;;;;;17.67;10.80;;;;;;;7.79;97.63;102836.84;2090337;28;20070;-65
2021/09/22 01:07:28;;;;;;;16.80;9.40;;;;;;;7.76;97.82;102826.47;2090300;28;20033;-65
2021/09/22 01:08:30;;;;;;;17.33;10.17;;;;;;;7.77;97.49;102829.06;2090807;28;20036;-65
2021/09/22 01:09:30;;;;;;;14.32;10.48;;;;;;;7.75;98.34;102829.91;2090895;28;20020;-65
2021/09/22 01:10:31;;;;;;;16.37;11.50;;;;;;;7.73;97.89;102833.41;2091274;28;20016;-65
2021/09/22 01:11:34;;;;;;;18.95;11.70;;;;;;;7.71;97.96;102824.75;2091181;28;20083;-65
2021/09/22 01:12:34;;;;;;;15.10;11.20;;;;;;;7.69;98.35;102831.66;2090953;28;20021;-65
2021/09/22 01:13:34;;;;;;;15.37;11.03;;;;;;;7.73;97.90;102837.72;2091317;28;20013;-65
2021/09/22 01:14:35;;;;;;;14.13;11.40;;;;;;;7.72;97.81;102834.25;2090607;28;20020;-64
2021/09/22 01:15:38;;;;;;;18.35;13.15;;;;;;;7.71;98.28;102827.34;2082203;28;20061;-65
2021/09/22 01:16:45;;;;;;;17.67;11.63;;;;;;;7.72;98.08;102831.66;2090656;28;20409;-65
2021/09/22 01:17:45;;;;;;;16.15;12.02;;;;;;;7.70;98.13;102833.38;2090603;28;20135;-67
2021/09/22 01:18:45;;;;;;;15.57;12.20;;;;;;;7.70;98.07;102828.19;2090524;28;20502;-66
2021/09/22 01:19:46;;;;;;;19.13;10.50;;;;;;;7.70;98.53;102832.53;2090886;28;20025;-65
2021/09/22 01:20:49;;;;;;;11.77;7.83;;;;;;;7.67;98.03;102827.31;2090901;28;20017;-65
2021/09/22 01:21:52;;;;;;;15.43;9.90;;;;;;;7.65;98.06;102824.72;2090600;28;20017;-65
2021/09/22 01:22:54;;;;;;;15.20;10.20;;;;;;;7.65;97.87;102819.53;2090798;28;20081;-65
2021/09/22 01:23:54;;;;;;;16.60;10.63;;;;;;;7.65;97.98;102824.72;2090597;28;20041;-65
2021/09/22 01:24:54;;;;;;;14.97;9.83;;;;;;;7.65;98.20;102822.13;2090339;28;20075;-66
2021/09/22 01:25:55;;;;;;;13.30;10.00;;;;;;;7.64;98.06;102823.00;2090141;28;20056;-65
2021/09/22 01:26:55;;;;;;;14.05;10.20;;;;;;;7.63;98.10;102826.44;2090046;28;20028;-65
2021/09/22 01:27:59;;;;;;;14.60;10.60;;;;;;;7.61;98.11;102828.19;2098464;28;20347;-65
2021/09/22 01:29:00;;;;;;;15.30;10.20;;;;;;;7.62;98.51;102824.72;2090664;28;20482;-65
2021/09/22 01:30:00;;;;;;;18.17;11.20;;;;;;;7.60;98.13;102829.06;2090971;28;20032;-65
2021/09/22 01:31:01;;;;;;;16.20;10.63;;;;;;;7.62;98.16;102829.91;2091110;28;20025;-65
2021/09/22 01:32:02;;;;;;;12.25;9.63;;;;;;;7.63;98.63;102829.03;2098245;28;20032;-65
2021/09/22 01:33:08;;;;;;;12.95;9.90;;;;;;;7.64;97.96;102835.09;2089956;28;20466;-66
2021/09/22 01:34:10;;;;;;;15.52;10.88;;;;;;;7.65;98.46;102824.72;2090259;28;20052;-65
2021/09/22 01:35:10;;;;;;;15.60;10.40;;;;;;;7.65;97.98;102827.31;2089999;28;20112;-65
2021/09/22 01:36:12;;;;;;;14.07;10.03;;;;;;;7.64;98.29;102827.31;2090146;28;20426;-65
2021/09/22 01:37:12;;;;;;;;;;;;;;;7.65;97.95;102827.31;2091764;28;20095;-65
2021/09/22 01:38:16;;;;;;;11.73;7.90;;;;;;;7.64;98.18;102828.19;2090554;28;19959;-65
2021/09/22 01:39:16;;;;;;;15.20;8.55;;;;;;;7.61;98.32;102828.19;2090386;28;20567;-64
2021/09/22 01:40:19;;;;;;;14.67;8.20;;;;;;;7.63;98.54;102817.78;2090108;28;20048;-65
2021/09/22 01:41:19;;;;;;;15.27;9.15;;;;;;;7.66;98.13;102820.41;2090470;28;20020;-66
2021/09/22 01:42:19;;;;;;;13.30;8.07;;;;;;;7.65;97.98;102816.91;2090820;28;20024;-65
2021/09/22 01:43:20;;;;;;;14.83;8.90;;;;;;;7.68;98.22;102824.72;2090606;28;20095;-65
2021/09/22 01:44:20;;;;;;;18.25;9.30;;;;;;;7.67;98.32;102820.38;2090447;28;20047;-65
2021/09/22 01:45:20;;;;;;;14.77;8.10;;;;;;;7.67;97.77;102817.78;2090736;28;20383;-65
2021/09/22 01:46:21;;;;;;;12.47;7.07;;;;;;;7.68;97.92;102816.94;2091022;28;20025;-65
2021/09/22 01:47:21;;;;;;;13.65;9.45;;;;;;;7.69;97.57;102821.25;2089642;28;20029;-65
2021/09/22 01:48:22;;;;;;;14.63;8.77;;;;;;;7.69;97.97;102820.38;2089814;28;20031;-65
2021/09/22 01:49:23;;;;;;;15.83;9.53;;;;;;;7.69;97.83;102815.19;2090469;28;20421;-65
2021/09/22 01:50:24;;;;;;;13.07;9.90;;;;;;;7.71;97.60;102818.66;2090525;28;20071;-65
2021/09/22 01:51:24;;;;;;;16.15;10.30;;;;;;;7.69;97.81;102815.19;2090652;28;20078;-65
2021/09/22 01:52:24;;;;;;;15.80;11.60;;;;;;;7.68;97.51;102819.53;2090835;28;20382;-65
2021/09/22 01:53:26;;;;;;;15.73;11.20;;;;;;;7.68;97.15;102819.53;2090814;28;20021;-65
2021/09/22 01:54:27;;;;;;;14.30;9.50;;;;;;;7.67;97.46;102807.38;2089785;28;20033;-64
2021/09/22 01:55:27;;;;;;;13.93;9.23;;;;;;;7.68;97.65;102814.34;2089733;28;20095;-65
2021/09/22 01:56:27;;;;;;;15.90;9.60;;;;;;;7.66;97.23;102803.06;2090464;28;20452;-65
2021/09/22 01:57:28;;;;;;;12.57;9.97;;;;;;;7.67;97.63;102802.19;2090658;28;20096;-65
2021/09/22 01:58:30;;;;;;;12.83;10.03;;;;;;;7.68;97.05;102805.66;2089873;28;20021;-65
2021/09/22 01:59:30;;;;;;;12.95;10.45;;;;;;;7.69;97.63;102810.88;2090355;28;20017;-64
2021/09/22 02:00:31;;;;;;;15.37;11.47;;;;;;;7.67;97.16;102802.19;2090846;28;20612;-65
2021/09/22 02:01:31;;;;;;;14.25;10.68;;;;;;;7.65;97.04;102803.94;2090734;28;20444;-65
2021/09/22 02:02:32;;;;;;;13.70;10.00;;;;;;;7.63;97.00;102799.59;2089860;28;20437;-66
2021/09/22 02:03:32;;;;;;;15.83;10.80;;;;;;;7.59;97.22;102809.09;2089830;28;20029;-65
2021/09/22 02:04:32;;;;;;;16.55;10.50;;;;;;;7.56;96.78;102801.31;2090345;28;20283;-66
2021/09/22 02:05:33;;;;;;;15.93;10.17;;;;;;;7.56;96.92;102804.78;2090519;28;20489;-65
2021/09/22 02:06:33;;;;;;;17.67;10.50;;;;;;;7.54;96.99;102803.03;2090670;28;20146;-64
2021/09/22 02:07:34;;;;;;;15.80;10.27;;;;;;;7.53;97.21;102803.91;2090483;28;20017;-65
2021/09/22 02:08:34;;;;;;;14.32;10.02;;;;;;;7.50;97.24;102796.09;2090526;28;20017;-65
2021/09/22 02:09:35;;;;;;;17.40;11.93;;;;;;;7.50;97.14;102790.91;2090666;28;20021;-65
2021/09/22 02:10:35;;;;;;;12.27;9.17;;;;;;;7.46;97.63;102803.03;2090330;28;20135;-64
2021/09/22 02:11:36;;;;;;;16.73;10.40;;;;;;;7.45;97.59;102796.97;2090358;28;20071;-65
2021/09/22 02:12:36;;;;;;;18.03;11.10;;;;;;;7.44;97.04;102804.75;2090461;28;20097;-65
2021/09/22 02:13:36;;;;;;;15.70;11.03;;;;;;;7.42;97.42;102794.34;2090659;28;20746;-64
2021/09/22 02:14:37;;;;;;;16.40;10.47;;;;;;;7.42;97.40;102806.47;2090944;28;20021;-65
2021/09/22 02:15:38;;;;;;;15.57;10.73;;;;;;;7.40;97.17;102797.81;2090088;28;20029;-65
2021/09/22 02:16:38;;;;;;;14.70;10.88;;;;;;;7.37;97.76;102796.09;2089783;28;20116;-64
2021/09/22 02:17:38;;;;;;;15.57;10.23;;;;;;;7.35;97.17;102800.41;2090550;28;20074;-65
2021/09/22 02:18:39;;;;;;;13.80;10.47;;;;;;;7.33;97.58;102795.19;2090460;28;20027;-66
2021/09/22 02:19:39;;;;;;;15.27;9.60;;;;;;;7.34;97.86;102798.66;2090501;28;20025;-65
2021/09/22 02:20:39;;;;;;;20.57;12.43;;;;;;;7.32;97.46;102808.16;2090840;28;20027;-65
2021/09/22 02:21:39;;;;;;;15.60;11.10;;;;;;;7.30;97.85;102802.13;2090683;28;20048;-65
2021/09/22 02:22:40;;;;;;;15.50;10.20;;;;;;;7.29;98.17;102805.59;2090069;28;20013;-65
2021/09/22 02:23:41;;;;;;;13.77;10.80;;;;;;;7.27;98.07;102797.78;2090009;28;20422;-65
2021/09/22 02:24:43;;;;;;;12.77;10.57;;;;;;;7.29;97.62;102805.59;2090749;28;20143;-65
2021/09/22 02:25:43;;;;;;;15.90;10.10;;;;;;;7.27;97.76;102797.78;2090811;28;20108;-65
2021/09/22 02:26:43;;;;;;;14.97;10.33;;;;;;;7.28;98.04;102799.53;2090740;28;20028;-65
2021/09/22 02:27:45;;;;;;;15.87;10.47;;;;;;;7.28;97.95;102798.63;2090839;28;20530;-64
2021/09/22 02:28:45;;;;;;;15.68;10.13;;;;;;;7.29;98.12;102792.59;2090707;28;20028;-66
2021/09/22 02:29:46;;;;;;;16.40;10.30;;;;;;;7.29;97.63;102803.00;2090017;28;20044;-64
2021/09/22 02:30:46;;;;;;;17.38;11.80;;;;;;;7.30;97.94;102791.72;2090096;28;20032;-66
2021/09/22 02:31:48;;;;;;;16.73;11.03;;;;;;;7.30;98.02;102802.13;2090659;28;20028;-65
2021/09/22 02:32:49;;;;;;;14.57;11.40;;;;;;;7.30;98.21;102800.41;2090907;28;20060;-65
2021/09/22 02:33:49;;;;;;;17.30;11.95;;;;;;;7.30;97.95;102796.94;2090707;28;20116;-64
2021/09/22 02:34:49;;;;;;;18.93;10.50;;;;;;;7.33;97.71;102796.94;2090507;28;20028;-65
2021/09/22 02:35:50;;;;;;;14.77;10.57;;;;;;;7.31;98.24;102793.47;2090759;28;20052;-67
2021/09/22 02:36:50;;;;;;;15.10;11.17;;;;;;;7.33;98.08;102791.75;2090706;28;20029;-65
2021/09/22 02:37:50;;;;;;;17.50;10.97;;;;;;;7.34;97.35;102793.47;2090704;28;20025;-64
2021/09/22 02:38:51;;;;;;;15.13;11.57;;;;;;;7.36;97.29;102799.56;2090244;28;20043;-65
2021/09/22 02:39:55;;;;;;;14.77;10.00;;;;;;;7.34;97.79;102803.88;2090167;28;20130;-65
2021/09/22 02:40:55;;;;;;;16.63;11.52;;;;;;;7.32;97.36;102796.06;2090837;28;20470;-66
2021/09/22 02:41:55;;;;;;;16.60;11.90;;;;;;;7.33;97.42;102791.75;2090890;28;20021;-66
2021/09/22 02:42:56;;;;;;;14.07;11.15;;;;;;;7.31;97.59;102788.25;2090790;28;20505;-66
2021/09/22 02:43:57;;;;;;;16.50;11.17;;;;;;;7.31;97.37;102789.16;2090496;28;20107;-64
2021/09/22 02:44:57;;;;;;;18.00;11.48;;;;;;;7.31;96.99;102793.47;2090681;28;20402;-65
2021/09/22 02:45:58;;;;;;;17.60;11.13;;;;;;;7.32;97.41;102787.41;2090664;28;20032;-65
2021/09/22 02:46:58;;;;;;;14.00;10.37;;;;;;;7.30;96.71;102792.63;2089879;28;20040;-65
2021/09/22 02:47:59;;;;;;;17.20;11.65;;;;;;;7.30;97.44;102792.63;2090227;28;20036;-65
2021/09/22 02:48:59;;;;;;;15.40;11.17;;;;;;;7.29;97.51;102796.03;2090908;28;20037;-65
2021/09/22 02:49:59;;;;;;;15.87;10.53;;;;;;;7.28;97.22;102794.31;2090837;28;20479;-65
2021/09/22 02:51:00;;;;;;;17.67;11.57;;;;;;;7.28;97.14;102798.63;2090291;28;20283;-66
2021/09/22 02:52:00;;;;;;;16.73;12.00;;;;;;;7.27;97.29;102791.72;2090616;28;20036;-65
2021/09/22 02:53:00;;;;;;;16.30;10.50;;;;;;;7.26;97.19;102790.00;2090021;28;20036;-65
2021/09/22 02:54:01;;;;;;;17.73;12.00;;;;;;;7.26;96.98;102787.41;2090004;28;20719;-65
2021/09/22 02:55:01;;;;;;;16.43;10.70;;;;;;;7.26;97.52;102790.00;2090000;28;20359;-65
2021/09/22 02:56:01;;;;;;;16.60;11.10;;;;;;;7.27;97.27;102794.31;2081523;28;20852;-65
2021/09/22 02:57:02;;;;;;;20.03;12.63;;;;;;;7.25;96.51;102794.31;2089747;28;20016;-65
2021/09/22 02:58:03;;;;;;;18.08;11.63;;;;;;;7.25;96.68;102794.31;2090323;28;20811;-65
2021/09/22 02:59:03;;;;;;;14.75;11.00;;;;;;;7.23;97.16;102793.44;2090194;28;20029;-65
2021/09/22 03:00:09;;;;;;;16.53;11.67;;;;;;;7.24;97.01;102786.50;2090577;28;20025;-66
2021/09/22 03:01:09;;;;;;;16.70;11.65;;;;;;;7.26;97.06;102790.00;2089685;28;20021;-65
2021/09/22 03:02:09;;;;;;;20.27;11.97;;;;;;;7.28;96.88;102793.44;2089702;28;20490;-65
2021/09/22 03:03:10;;;;;;;16.03;12.00;;;;;;;7.27;96.91;102787.41;2090090;28;20025;-65
2021/09/22 03:04:10;;;;;;;14.17;10.70;;;;;;;7.27;97.30;102783.94;2089391;28;20559;-65
2021/09/22 03:05:10;;;;;;;15.97;11.17;;;;;;;7.26;96.88;102790.00;2089745;28;20013;-65
2021/09/22 03:06:11;;;;;;;17.90;12.00;;;;;;;7.27;97.05;102789.13;2089892;28;20051;-65
2021/09/22 03:07:11;;;;;;;17.08;12.40;;;;;;;7.28;96.34;102789.13;2090342;28;20044;-65
2021/09/22 03:08:11;;;;;;;18.20;11.90;;;;;;;7.27;96.53;102783.94;2090297;28;20037;-65
2021/09/22 03:09:12;;;;;;;16.93;11.60;;;;;;;7.31;96.61;102790.88;2090400;28;20059;-65
2021/09/22 03:10:12;;;;;;;17.67;12.70;;;;;;;7.32;96.53;102790.00;2090108;28;20029;-65
2021/09/22 03:11:13;;;;;;;16.00;12.00;;;;;;;7.30;96.42;102776.16;2089560;28;20028;-65
2021/09/22 03:12:13;;;;;;;15.30;11.00;;;;;;;7.27;96.45;102776.13;2089439;28;20009;-65
2021/09/22 03:13:13;;;;;;;15.57;12.20;;;;;;;7.25;95.90;102778.72;2089464;28;20098;-65
2021/09/22 03:14:13;;;;;;;18.13;11.80;;;;;;;7.24;96.49;102778.72;2089877;28;20096;-65
2021/09/22 03:15:14;;;;;;;19.10;11.40;;;;;;;7.22;96.18;102779.59;2089823;28;20025;-65
2021/09/22 03:16:15;;;;;;;23.88;13.68;;;;;;;7.24;96.11;102778.72;2089220;28;20017;-65
2021/09/22 03:17:15;;;;;;;16.23;10.23;;;;;;;7.22;96.75;102782.19;2089202;28;20029;-65
2021/09/22 03:18:16;;;;;;;18.43;11.10;;;;;;;7.24;96.09;102776.13;2089831;28;20390;-65
2021/09/22 03:19:16;;;;;;;17.10;12.60;;;;;;;7.24;96.48;102776.13;2090154;28;20086;-65
2021/09/22 03:20:17;;;;;;;18.90;11.73;;;;;;;7.22;96.78;102779.59;2090257;28;20091;-65
2021/09/22 03:21:17;;;;;;;16.83;11.98;;;;;;;7.23;95.92;102775.28;2089900;28;20021;-66
2021/09/22 03:22:18;;;;;;;21.63;13.50;;;;;;;7.21;96.01;102777.88;2089314;28;20029;-65
2021/09/22 03:23:18;;;;;;;21.98;12.85;;;;;;;7.20;96.76;102768.34;2089175;28;20041;-65
2021/09/22 03:24:19;;;;;;;16.30;12.15;;;;;;;7.19;96.31;102769.19;2089899;28;20040;-65
2021/09/22 03:25:19;;;;;;;21.17;12.73;;;;;;;7.17;96.31;102765.72;2090170;28;20462;-65
2021/09/22 03:26:21;;;;;;;19.52;13.30;;;;;;;7.16;96.71;102764.00;2090041;28;20096;-67
2021/09/22 03:27:21;;;;;;;19.88;12.80;;;;;;;7.16;96.88;102769.19;2090144;28;20064;-65
2021/09/22 03:28:22;;;;;;;20.37;12.40;;;;;;;7.12;96.68;102754.44;2089070;28;20021;-65
2021/09/22 03:29:22;;;;;;;19.88;13.43;;;;;;;7.14;96.40;102760.53;2089285;28;20501;-65
2021/09/22 03:30:23;;;;;;;19.23;13.17;;;;;;;7.14;96.61;102755.34;2089647;28;20017;-65
2021/09/22 03:31:23;;;;;;;18.97;12.53;;;;;;;7.12;96.66;102759.63;2090032;28;20024;-65
2021/09/22 03:32:24;;;;;;;18.80;13.43;;;;;;;7.12;96.86;102757.03;2090028;28;20031;-65
2021/09/22 03:33:24;;;;;;;18.83;12.67;;;;;;;7.11;96.55;102752.72;2089901;28;20017;-65
2021/09/22 03:34:24;;;;;;;23.10;12.70;;;;;;;7.07;96.66;102754.47;2089482;28;20029;-66
2021/09/22 03:35:25;;;;;;;22.43;13.73;;;;;;;7.07;96.56;102759.66;2081353;28;20322;-65
2021/09/22 03:36:25;;;;;;;18.70;13.20;;;;;;;7.06;96.81;102759.63;2089482;28;20025;-65
2021/09/22 03:37:25;;;;;;;18.57;13.60;;;;;;;7.06;96.80;102762.22;2090003;28;20366;-64
2021/09/22 03:38:27;;;;;;;20.03;13.80;;;;;;;7.06;96.83;102762.22;2090242;28;20033;-65
2021/09/22 03:39:27;;;;;;;21.17;13.90;;;;;;;7.03;96.55;102757.91;2090065;28;20028;-64
2021/09/22 03:40:28;;;;;;;20.00;13.30;;;;;;;7.03;96.32;102757.03;2089630;28;20385;-65
2021/09/22 03:41:28;;;;;;;16.50;12.20;;;;;;;7.01;96.65;102758.75;2089231;28;20490;-65
2021/09/22 03:42:28;;;;;;;21.63;13.33;;;;;;;7.00;96.52;102759.59;2089249;28;20027;-68
2021/09/22 03:43:29;;;;;;;17.30;12.53;;;;;;;6.99;96.44;102757.88;2089038;28;20502;-66
2021/09/22 03:44:29;;;;;;;20.27;13.07;;;;;;;6.98;96.58;102763.94;2089232;28;20108;-65
2021/09/22 03:45:30;;;;;;;20.37;13.70;;;;;;;6.97;96.76;102762.22;2089514;28;20490;-65
2021/09/22 03:46:30;;;;;;;21.55;12.80;;;;;;;6.95;96.37;102757.88;2089074;28;20104;-65
2021/09/22 03:47:30;;;;;;;23.03;13.47;;;;;;;6.94;96.49;102763.91;2089520;28;20070;-65
2021/09/22 03:48:31;;;;;;;17.10;12.17;;;;;;;6.93;96.56;102756.13;2090137;28;20481;-65
2021/09/22 03:49:31;;;;;;;18.27;13.20;;;;;;;6.91;96.59;102763.91;2089192;28;20021;-64
2021/09/22 03:50:32;;;;;;;22.33;12.33;;;;;;;6.89;96.54;102755.25;2089533;28;20032;-65
2021/09/22 03:51:32;;;;;;;17.77;13.20;;;;;;;6.92;96.39;102764.78;2089698;28;20502;-64
2021/09/22 03:52:33;;;;;;;18.90;12.47;;;;;;;6.93;96.60;102769.09;2089814;28;20124;-65
2021/09/22 03:53:33;;;;;;;17.05;11.80;;;;;;;6.95;96.83;102770.84;2089224;28;20091;-65
2021/09/22 03:54:33;;;;;;;15.30;12.03;;;;;;;6.96;96.93;102761.34;2089009;28;20036;-66
2021/09/22 03:55:34;;;;;;;22.27;12.43;;;;;;;6.93;96.74;102769.09;2090235;28;20559;-65
2021/09/22 03:56:34;;;;;;;18.33;12.55;;;;;;;6.92;96.33;102765.63;2089784;28;20024;-65
2021/09/22 03:57:34;;;;;;;18.33;12.43;;;;;;;6.90;96.92;102762.19;2089952;28;20102;-65
2021/09/22 03:58:35;;;;;;;20.97;13.83;;;;;;;6.91;96.61;102769.09;2089918;28;20427;-65
2021/09/22 03:59:37;;;;;;;21.13;12.63;;;;;;;6.93;96.66;102769.09;2089482;28;20105;-65
2021/09/22 04:00:38;;;;;;;22.35;13.80;;;;;;;6.92;96.78;102760.44;2089645;28;20025;-65
2021/09/22 04:01:38;;;;;;;24.33;13.77;;;;;;;6.90;96.98;102767.38;2089799;28;20070;-65
2021/09/22 04:02:39;;;;;;;18.03;11.93;;;;;;;6.89;96.66;102760.44;2089438;28;20033;-65
2021/09/22 04:03:39;;;;;;;21.20;11.90;;;;;;;6.89;96.68;102760.44;2089342;28;20159;-65
2021/09/22 04:04:39;;;;;;;16.77;13.47;;;;;;;6.88;96.40;102763.88;2089609;28;20032;-65
2021/09/22 04:05:39;;;;;;;20.73;14.37;;;;;;;6.91;96.18;102758.72;2089724;28;20025;-65
2021/09/22 04:06:40;;;;;;;23.47;14.53;;;;;;;6.90;96.71;102753.50;2089707;28;20367;-65
2021/09/22 04:07:40;;;;;;;20.10;12.33;;;;;;;6.88;96.93;102750.91;2089404;28;20036;-64
2021/09/22 04:08:40;;;;;;;22.70;14.37;;;;;;;6.89;97.08;102755.25;2089649;28;20462;-65
2021/09/22 04:09:41;;;;;;;21.00;13.93;;;;;;;6.88;96.36;102757.84;2089468;28;20047;-65
2021/09/22 04:10:41;;;;;;;22.75;13.50;;;;;;;6.87;96.87;102753.53;2089671;28;20040;-64
2021/09/22 04:11:42;;;;;;;18.83;13.18;;;;;;;6.85;96.95;102750.91;2089684;28;20320;-65
2021/09/22 04:12:42;;;;;;;18.93;12.97;;;;;;;6.80;96.70;102747.41;2089598;28;20021;-66
2021/09/22 04:13:43;;;;;;;26.20;13.50;;;;;;;6.78;97.06;102747.41;2089678;28;20052;-65
2021/09/22 04:14:43;;;;;;;21.25;14.15;;;;;;;6.77;96.77;102750.03;2089402;28;20106;-66
2021/09/22 04:15:43;;;;;;;24.80;15.03;;;;;;;6.78;96.87;102742.22;2089425;28;20025;-65
2021/09/22 04:16:44;;;;;;;25.23;12.83;;;;;;;6.77;97.21;102744.84;2089223;28;20037;-66
2021/09/22 04:17:44;;;;;;;25.50;14.55;;;;;;;6.79;97.30;102749.16;2088573;28;20052;-65
2021/09/22 04:18:45;;;;;;;24.73;13.60;;;;;;;6.79;97.36;102749.16;2088964;28;20049;-65
2021/09/22 04:19:45;;;;;;;23.13;14.87;;;;;;;6.80;97.13;102752.59;2089662;28;20478;-65
2021/09/22 04:20:45;;;;;;;19.53;13.87;;;;;;;6.81;97.11;102759.56;2089868;28;20061;-65
2021/09/22 04:21:46;;;;;;;25.97;14.87;;;;;;;6.79;96.87;102756.94;2089341;28;20295;-65
2021/09/22 04:22:46;;;;;;;24.07;15.87;;;;;;;6.79;97.04;102758.66;2089207;28;20033;-66
2021/09/22 04:23:46;;;;;;;24.93;14.50;;;;;;;6.77;96.99;102753.47;2089521;28;20025;-66
2021/09/22 04:24:47;;;;;;;28.60;15.20;;;;;;;6.78;96.79;102752.59;2089817;28;20029;-64
2021/09/22 04:25:47;;;;;;;29.43;16.93;;;;;;;6.75;96.95;102752.63;2089565;28;20029;-65
2021/09/22 04:26:47;;;;;;;24.90;14.83;;;;;;;6.73;96.81;102748.25;2089611;28;20025;-64
2021/09/22 04:27:47;;;;;;;21.10;14.03;;;;;;;6.70;96.81;102752.59;2089071;28;20033;-65
2021/09/22 04:28:48;;;;;;;21.00;13.93;;;;;;;6.68;97.50;102751.69;2088708;28;20029;-65
2021/09/22 04:29:48;;;;;;;23.87;14.63;;;;;;;6.67;97.53;102755.16;2089461;28;20394;-65
2021/09/22 04:30:48;;;;;;;19.83;13.67;;;;;;;6.64;97.13;102755.13;2089570;28;20021;-65
2021/09/22 04:31:48;;;;;;;26.20;14.70;;;;;;;6.63;96.81;102750.81;2089515;28;20436;-65
2021/09/22 04:32:49;;;;;;;21.57;14.17;;;;;;;6.64;97.51;102751.69;2088690;28;20052;-68
2021/09/22 04:33:49;;;;;;;24.30;14.50;;;;;;;6.65;97.17;102746.50;2089073;28;20525;-65
2021/09/22 04:34:49;;;;;;;24.27;15.63;;;;;;;6.65;97.40;102751.69;2089604;28;20013;-66
2021/09/22 04:35:52;;;;;;;23.10;14.00;;;;;;;6.68;96.94;102756.03;2089205;28;20021;-65
2021/09/22 04:36:53;;;;;;;24.35;14.38;;;;;;;6.66;97.51;102750.84;2088457;28;20017;-65
2021/09/22 04:37:54;;;;;;;26.88;16.67;;;;;;;6.66;97.76;102757.75;2089001;28;20032;-65
2021/09/22 04:38:54;;;;;;;25.38;16.45;;;;;;;6.65;97.09;102759.50;2089948;28;20025;-65
2021/09/22 04:39:54;;;;;;;22.63;14.20;;;;;;;6.65;97.32;102756.88;2090428;28;20025;-66